Time;durP1;ratioP1;P1;durP2;ratioP2;P2;SDS_P1;SDS_P2;PMS_P1;PMS_P2;Temp;Humidity;BMP_temperature;BMP_pressure;BME280_temperature;BME280_humidity;BME280_pressure;Samples;Min_cycle;Max_cycle;Signal;HPM_P1;HPM_P2
2021/12/02 00:00:45;;;;;;;4.80;4.70;;;;;;;-0.12;88.77;98697.03;4935115;29;20901;-42
2021/12/02 00:03:13;;;;;;;7.67;5.27;;;;;;;-0.10;89.78;98713.41;4935389;29;20527;-42
2021/12/02 00:05:41;;;;;;;6.50;6.07;;;;;;;-0.12;90.87;98694.41;4935595;29;20446;-43
2021/12/02 00:08:09;;;;;;;6.00;5.80;;;;;;;0.00;87.27;98721.03;4935423;29;20480;-42
2021/12/02 00:10:40;;;;;;;7.03;6.57;;;;;;;-0.05;88.10;98731.22;4935023;29;20564;-42
2021/12/02 00:13:09;;;;;;;6.10;5.90;;;;;;;-0.09;90.52;98725.50;4935063;29;20455;-42
2021/12/02 00:15:42;;;;;;;6.23;6.03;;;;;;;-0.06;91.58;98737.47;4935370;29;20439;-42
2021/12/02 00:21:05;;;;;;;6.43;6.33;;;;;;;-0.02;88.81;98749.19;4934093;29;20835;-48
2021/12/02 00:23:39;;;;;;;6.47;6.10;;;;;;;-0.09;89.87;98772.66;4934971;29;20465;-43
2021/12/02 00:26:13;;;;;;;7.00;6.60;;;;;;;-0.05;88.67;98773.13;4935207;29;20446;-42
2021/12/02 00:28:41;;;;;;;7.13;6.70;;;;;;;-0.03;88.96;98773.78;4935197;29;20481;-43
2021/12/02 00:31:15;;;;;;;6.80;6.60;;;;;;;0.00;88.90;98781.28;4934401;29;20553;-47
2021/12/02 00:33:46;;;;;;;6.50;6.20;;;;;;;-0.06;91.38;98795.09;4934779;29;20816;-42
2021/12/02 00:36:15;;;;;;;6.00;5.70;;;;;;;-0.09;92.40;98783.13;4935266;29;20441;-45
2021/12/02 00:38:44;;;;;;;6.07;5.87;;;;;;;-0.14;93.18;98803.81;4934897;29;20446;-42
2021/12/02 00:41:15;;;;;;;8.07;7.30;;;;;;;-0.07;92.55;98812.63;4934381;29;20474;-42
2021/12/02 00:43:44;;;;;;;6.33;6.23;;;;;;;-0.04;91.96;98821.94;4934837;29;20527;-42
2021/12/02 00:46:14;;;;;;;6.77;6.57;;;;;;;-0.03;91.98;98820.94;4934483;29;20503;-42
2021/12/02 00:48:42;;;;;;;6.50;6.20;;;;;;;-0.06;91.50;98839.66;4935042;29;20565;-44
2021/12/02 00:51:11;;;;;;;6.93;6.73;;;;;;;-0.05;91.65;98828.97;4934210;29;20478;-46
2021/12/02 00:53:43;;;;;;;6.40;6.20;;;;;;;-0.08;92.64;98834.56;4934511;29;21026;-44
2021/12/02 00:56:15;;;;;;;7.10;6.80;;;;;;;-0.03;91.12;98832.22;4934852;29;20451;-44
2021/12/02 00:58:47;;;;;;;7.10;6.50;;;;;;;0.03;89.13;98851.66;4934706;29;20436;-44
2021/12/02 01:01:15;;;;;;;6.60;6.40;;;;;;;-0.02;91.60;98867.09;4934226;29;20497;-43
2021/12/02 01:03:44;;;;;;;6.50;6.30;;;;;;;-0.08;92.63;98837.19;4934690;29;20437;-42
2021/12/02 01:06:12;;;;;;;6.37;6.27;;;;;;;-0.10;90.81;98882.88;4934757;29;20533;-45
2021/12/02 01:08:40;;;;;;;6.30;6.17;;;;;;;-0.08;90.60;98867.81;4934704;29;20484;-47
2021/12/02 01:11:10;;;;;;;6.47;6.37;;;;;;;-0.07;88.90;98869.44;4934066;29;20478;-42
2021/12/02 01:13:39;;;;;;;6.80;6.50;;;;;;;-0.05;89.30;98873.50;4934635;29;20536;-44
2021/12/02 01:16:07;;;;;;;7.40;7.00;;;;;;;-0.05;91.41;98885.78;4934899;29;20972;-42
2021/12/02 01:18:35;;;;;;;6.57;6.40;;;;;;;-0.08;91.71;98896.63;4934630;29;20437;-45
2021/12/02 01:21:05;;;;;;;6.53;6.33;;;;;;;-0.01;90.03;98906.25;4934049;29;20476;-44
2021/12/02 01:23:34;;;;;;;6.60;6.30;;;;;;;-0.06;91.82;98898.06;4934541;29;21133;-42
2021/12/02 01:26:04;;;;;;;6.50;6.10;;;;;;;-0.06;92.24;98913.00;4934504;29;20446;-42
2021/12/02 01:28:33;;;;;;;6.43;6.20;;;;;;;-0.08;92.70;98913.16;4934749;29;21008;-45
2021/12/02 01:31:02;;;;;;;6.43;5.90;;;;;;;-0.12;93.34;98932.81;4933732;29;20469;-47
2021/12/02 01:33:30;;;;;;;6.40;6.20;;;;;;;-0.04;92.43;98940.66;4934275;29;20444;-47
2021/12/02 01:36:01;;;;;;;5.97;5.77;;;;;;;-0.07;93.29;98948.03;4934475;29;20441;-44
2021/12/02 01:38:30;;;;;;;6.43;6.23;;;;;;;-0.03;92.79;98951.97;4934155;29;20437;-46
2021/12/02 01:40:59;;;;;;;6.03;5.80;;;;;;;0.02;92.56;98967.16;4933666;29;20457;-43
2021/12/02 01:43:44;;;;;;;5.80;5.70;;;;;;;0.04;92.46;98966.00;4934202;29;20434;-47
2021/12/02 01:46:15;;;;;;;6.67;6.47;;;;;;;0.05;92.36;98970.25;4934386;29;20446;-43
2021/12/02 01:48:44;;;;;;;6.00;5.70;;;;;;;0.03;92.78;98987.94;4934121;29;20898;-43
2021/12/02 01:51:12;;;;;;;6.27;6.17;;;;;;;0.07;92.46;98978.75;4933758;29;20484;-44
2021/12/02 01:53:42;;;;;;;5.53;5.43;;;;;;;0.08;92.14;98998.72;4934195;29;20436;-49
2021/12/02 01:56:11;;;;;;;5.90;5.50;;;;;;;0.09;92.33;99000.34;4934351;29;20450;-47
2021/12/02 01:58:43;;;;;;;7.23;6.73;;;;;;;0.11;92.39;98995.78;4936526;29;20435;-45
2021/12/02 02:01:17;;;;;;;5.70;5.60;;;;;;;0.13;93.21;99000.81;4937156;29;20474;-46
2021/12/02 02:03:45;;;;;;;6.10;5.90;;;;;;;0.12;93.25;99013.09;4937672;29;20524;-43
2021/12/02 02:06:21;;;;;;;5.73;5.63;;;;;;;0.17;93.10;99012.59;4937589;29;21050;-48
2021/12/02 02:08:49;;;;;;;6.37;6.10;;;;;;;0.20;92.61;99020.94;4937697;29;20480;-43
2021/12/02 02:11:17;;;;;;;6.10;5.90;;;;;;;0.26;91.93;99012.41;4937131;29;20464;-48
2021/12/02 02:13:45;;;;;;;6.83;6.53;;;;;;;0.26;91.94;99019.44;4937214;29;20436;-45
2021/12/02 02:16:12;;;;;;;7.33;5.90;;;;;;;0.27;91.92;99023.72;4937674;29;20447;-43
2021/12/02 02:18:41;;;;;;;7.17;6.87;;;;;;;0.26;92.42;99032.53;4937594;29;20442;-44
2021/12/02 02:21:14;;;;;;;5.63;5.43;;;;;;;0.27;92.54;99018.47;4936962;29;20473;-45
2021/12/02 02:23:46;;;;;;;5.37;5.20;;;;;;;0.26;92.83;99033.38;4937251;29;20433;-43
2021/12/02 02:26:16;;;;;;;5.53;5.33;;;;;;;0.28;92.40;99035.81;4937189;29;20413;-45
2021/12/02 02:28:43;;;;;;;6.10;5.63;;;;;;;0.32;91.59;99047.59;4937347;29;20433;-43
2021/12/02 02:31:11;;;;;;;6.40;6.10;;;;;;;0.36;90.31;99038.41;4936551;29;20481;-47
2021/12/02 02:33:39;;;;;;;5.77;5.60;;;;;;;0.36;90.84;99054.13;4937042;29;20466;-44
2021/12/02 02:38:38;;;;;;;6.47;6.17;;;;;;;0.38;90.53;99037.22;4935239;29;20464;-45
2021/12/02 02:41:08;;;;;;;6.30;5.87;;;;;;;0.37;92.47;99066.22;4936639;28;20461;-41
2021/12/02 02:43:36;;;;;;;5.73;5.53;;;;;;;0.38;91.47;99063.44;4937051;29;20435;-42
2021/12/02 02:46:04;;;;;;;7.07;6.40;;;;;;;0.35;91.30;99066.41;4936972;29;20442;-41
2021/12/02 02:48:31;;;;;;;5.67;5.27;;;;;;;0.36;92.42;99072.50;4936878;29;20522;-41
2021/12/02 02:50:59;;;;;;;5.80;5.70;;;;;;;0.31;93.04;99062.50;4936791;28;20479;-47
2021/12/02 02:53:27;;;;;;;6.27;5.77;;;;;;;0.35;92.80;99078.72;4936745;29;20433;-42
2021/12/02 02:56:05;;;;;;;5.50;5.40;;;;;;;0.35;92.09;99086.56;4936992;29;20437;-42
2021/12/02 02:58:44;;;;;;;5.90;5.60;;;;;;;0.36;92.23;99091.63;4936898;29;20444;-41
2021/12/02 03:01:26;;;;;;;6.20;5.80;;;;;;;0.32;92.48;99084.28;4936314;28;20462;-44
2021/12/02 03:04:03;;;;;;;6.20;5.80;;;;;;;0.29;93.16;99090.69;4936481;29;20432;-41
2021/12/02 03:06:36;;;;;;;7.03;6.13;;;;;;;0.31;92.17;99093.97;4936675;29;20822;-40
2021/12/02 03:09:07;;;;;;;6.07;5.70;;;;;;;0.28;92.44;99096.09;4936220;29;20435;-41
2021/12/02 03:11:43;;;;;;;6.13;5.67;;;;;;;0.27;92.73;99092.66;4936128;28;21163;-40
2021/12/02 03:14:15;;;;;;;5.60;5.30;;;;;;;0.26;92.79;99104.16;4936166;29;20441;-41
2021/12/02 03:16:46;;;;;;;6.30;5.80;;;;;;;0.26;92.88;99100.72;4936494;29;20828;-41
2021/12/02 03:19:15;;;;;;;6.03;5.73;;;;;;;0.22;92.95;99109.88;4936409;29;21125;-40
2021/12/02 03:21:43;;;;;;;7.43;5.40;;;;;;;0.26;92.34;99112.03;4935856;28;20989;-42
2021/12/02 03:24:11;;;;;;;6.10;5.87;;;;;;;0.27;93.04;99125.94;4936033;29;20444;-43
2021/12/02 03:26:40;;;;;;;6.83;5.63;;;;;;;0.28;92.90;99130.19;4935983;29;20465;-41
2021/12/02 03:29:08;;;;;;;6.30;5.70;;;;;;;0.26;92.89;99117.25;4936395;29;20440;-41
2021/12/02 03:31:35;;;;;;;6.53;5.97;;;;;;;0.23;92.35;99120.22;4935758;28;20475;-41
2021/12/02 03:34:05;;;;;;;5.60;5.10;;;;;;;0.24;92.00;99124.47;4936084;29;20438;-42
2021/12/02 03:36:33;;;;;;;5.53;5.23;;;;;;;0.28;92.11;99131.00;4935722;29;21056;-41
2021/12/02 03:39:00;;;;;;;7.43;5.57;;;;;;;0.27;91.90;99146.91;4935839;29;20429;-41
2021/12/02 03:41:28;;;;;;;5.93;5.63;;;;;;;0.28;92.75;99146.72;4935436;28;20470;-41
2021/12/02 03:43:57;;;;;;;5.70;5.27;;;;;;;0.23;90.94;99146.44;4935880;29;20812;-41
2021/12/02 03:46:26;;;;;;;6.43;6.03;;;;;;;0.28;91.55;99151.16;4935929;29;20445;-41
2021/12/02 03:48:55;;;;;;;5.90;5.50;;;;;;;0.26;90.70;99153.97;4935927;29;20442;-40
2021/12/02 03:51:23;;;;;;;6.77;6.07;;;;;;;0.28;91.68;99172.13;4935185;28;20844;-41
2021/12/02 03:53:51;;;;;;;6.87;6.47;;;;;;;0.27;91.36;99166.06;4935468;29;20437;-42
2021/12/02 03:56:19;;;;;;;7.03;5.67;;;;;;;0.27;91.11;99171.31;4935975;29;20991;-43
2021/12/02 03:58:48;;;;;;;6.07;5.70;;;;;;;0.26;90.79;99174.13;4935767;29;20442;-44
2021/12/02 04:01:18;;;;;;;6.53;5.93;;;;;;;0.27;91.05;99168.69;4935250;28;20460;-42
2021/12/02 04:03:46;;;;;;;5.47;5.20;;;;;;;0.26;91.89;99185.44;4935710;29;20493;-40
2021/12/02 04:06:14;;;;;;;6.63;6.10;;;;;;;0.27;91.91;99181.78;4935316;29;20440;-43
2021/12/02 04:08:46;;;;;;;6.87;6.40;;;;;;;0.23;90.51;99185.75;4935710;29;20445;-40
2021/12/02 04:11:25;;;;;;;6.50;6.30;;;;;;;0.20;91.46;99207.06;4935089;28;20486;-43
2021/12/02 04:14:06;;;;;;;12.70;6.43;;;;;;;0.23;90.63;99198.03;4934967;29;20442;-41
2021/12/02 04:16:38;;;;;;;6.50;6.20;;;;;;;0.21;91.15;99210.50;4916409;29;20466;-42
2021/12/02 04:19:07;;;;;;;7.17;6.00;;;;;;;0.19;91.42;99213.28;4916584;29;20441;-42
2021/12/02 04:21:39;;;;;;;6.00;5.60;;;;;;;0.15;91.87;99214.59;4915438;28;21097;-42
2021/12/02 04:24:07;;;;;;;6.50;6.10;;;;;;;0.15;92.02;99230.31;4916197;29;20472;-41
2021/12/02 04:26:34;;;;;;;6.27;5.83;;;;;;;0.13;91.44;99232.31;4925747;29;20840;-42
2021/12/02 04:29:02;;;;;;;6.13;5.23;;;;;;;0.16;92.16;99239.84;4933999;29;20439;-41
2021/12/02 04:31:30;;;;;;;8.97;6.07;;;;;;;0.11;91.78;99236.91;4934387;28;20478;-45
2021/12/02 04:33:59;;;;;;;7.23;6.53;;;;;;;0.12;91.12;99243.75;4935037;29;20450;-43
2021/12/02 04:36:26;;;;;;;12.57;6.60;;;;;;;0.15;91.69;99240.81;4935121;29;20799;-41
2021/12/02 04:38:54;;;;;;;6.37;5.73;;;;;;;0.18;91.89;99250.16;4934874;29;20923;-42
2021/12/02 04:41:21;;;;;;;6.57;6.07;;;;;;;0.19;91.83;99244.75;4934443;28;20469;-44
2021/12/02 04:43:49;;;;;;;10.63;6.10;;;;;;;0.19;91.73;99255.22;4934586;29;20449;-40
2021/12/02 04:46:17;;;;;;;6.03;5.53;;;;;;;0.21;91.03;99260.31;4934797;29;20950;-42
2021/12/02 04:48:44;;;;;;;6.00;4.97;;;;;;;0.21;90.76;99271.59;4935025;29;20438;-41
2021/12/02 04:51:13;;;;;;;7.50;7.00;;;;;;;0.26;91.41;99277.19;4934442;28;20619;-40
2021/12/02 04:53:41;;;;;;;7.47;7.00;;;;;;;0.28;90.37;99282.25;4934673;29;20619;-41
2021/12/02 04:56:09;;;;;;;8.60;7.90;;;;;;;0.34;90.16;99298.13;4934637;29;20447;-41
2021/12/02 04:58:36;;;;;;;8.13;6.93;;;;;;;0.33;89.38;99291.25;4934645;29;20436;-41
2021/12/02 05:01:04;;;;;;;7.90;7.30;;;;;;;0.32;88.61;99292.25;4934390;28;20485;-41
2021/12/02 05:03:32;;;;;;;9.43;7.37;;;;;;;0.37;89.16;99295.19;4934575;29;20815;-42
2021/12/02 05:05:59;;;;;;;7.77;6.20;;;;;;;0.38;88.51;99296.84;4934585;29;20947;-43
2021/12/02 05:08:28;;;;;;;6.07;5.60;;;;;;;0.40;88.61;99304.50;4934636;29;20457;-44
2021/12/02 05:10:56;;;;;;;6.20;5.90;;;;;;;0.39;87.28;99300.25;4933816;28;20488;-40
2021/12/02 05:13:23;;;;;;;7.27;6.80;;;;;;;0.39;87.17;99306.31;4934540;29;20442;-41
2021/12/02 05:15:51;;;;;;;6.70;6.20;;;;;;;0.42;87.38;99320.88;4934555;29;20451;-44
2021/12/02 05:18:19;;;;;;;6.50;6.00;;;;;;;0.42;86.95;99316.47;4934534;29;20472;-41
2021/12/02 05:20:48;;;;;;;6.20;6.00;;;;;;;0.40;85.51;99307.13;4934050;28;20474;-43
2021/12/02 05:23:15;;;;;;;6.87;6.23;;;;;;;0.43;85.98;99314.66;4934160;29;20439;-41
2021/12/02 05:25:45;;;;;;;6.73;6.10;;;;;;;0.43;85.92;99327.78;4934618;29;20429;-41
2021/12/02 05:28:15;;;;;;;7.53;7.07;;;;;;;0.45;86.78;99315.31;4934703;29;20461;-41
2021/12/02 05:30:43;;;;;;;6.80;6.10;;;;;;;0.41;86.05;99300.91;4934145;28;20479;-44
2021/12/02 05:33:11;;;;;;;5.90;5.60;;;;;;;0.43;86.23;99317.28;4935975;29;20438;-46
2021/12/02 05:35:40;;;;;;;7.00;6.70;;;;;;;0.47;86.74;99321.22;4938313;29;20446;-46
2021/12/02 05:38:07;;;;;;;10.73;6.13;;;;;;;0.48;86.85;99330.72;4937694;29;20902;-42
2021/12/02 05:40:35;;;;;;;7.20;6.70;;;;;;;0.44;85.18;99327.63;4930362;28;20476;-43
2021/12/02 05:43:04;;;;;;;7.03;5.93;;;;;;;0.47;86.87;99326.47;4938039;29;20429;-46
2021/12/02 05:45:32;;;;;;;7.20;6.60;;;;;;;0.48;86.46;99334.16;4938147;29;20479;-41
2021/12/02 05:48:00;;;;;;;6.63;6.10;;;;;;;0.46;86.04;99333.53;4937876;29;20463;-40
2021/12/02 05:50:27;;;;;;;6.50;6.07;;;;;;;0.45;84.61;99352.03;4937327;28;20465;-43
2021/12/02 05:52:55;;;;;;;7.63;6.50;;;;;;;0.48;85.24;99357.75;4937904;29;20434;-41
2021/12/02 05:55:23;;;;;;;8.27;7.80;;;;;;;0.50;84.82;99355.81;4937814;29;20456;-40
2021/12/02 05:57:50;;;;;;;11.23;8.03;;;;;;;0.51;85.26;99360.06;4937704;29;20966;-41
2021/12/02 06:00:19;;;;;;;7.80;7.40;;;;;;;0.56;86.24;99359.56;4937397;28;20478;-42
2021/12/02 06:02:47;;;;;;;7.83;7.23;;;;;;;0.56;85.14;99359.56;4937399;29;20440;-43
2021/12/02 06:05:19;;;;;;;7.17;6.67;;;;;;;0.54;83.94;99379.88;4937709;29;20439;-41
2021/12/02 06:07:49;;;;;;;6.57;6.27;;;;;;;0.54;84.66;99367.59;4937532;29;20452;-41
2021/12/02 06:10:17;;;;;;;5.70;5.37;;;;;;;0.55;84.73;99376.28;4937001;28;20477;-41
2021/12/02 06:12:45;;;;;;;8.27;5.40;;;;;;;0.53;86.01;99371.22;4937316;29;20474;-40
2021/12/02 06:15:13;;;;;;;9.57;5.33;;;;;;;0.51;84.63;99377.59;4937539;29;20812;-41
2021/12/02 06:17:43;;;;;;;8.30;5.30;;;;;;;0.49;84.05;99383.03;4937179;29;20451;-42
2021/12/02 06:20:12;;;;;;;6.30;5.77;;;;;;;0.49;85.94;99396.13;4937160;28;20470;-45
2021/12/02 06:22:41;;;;;;;6.40;5.90;;;;;;;0.50;84.28;99394.34;4937486;29;20434;-41
2021/12/02 06:27:59;;;;;;;6.33;5.93;;;;;;;0.44;86.14;99414.19;4917663;29;20470;-41
2021/12/02 06:30:27;;;;;;;6.30;5.90;;;;;;;0.43;86.83;99411.69;4936957;28;20555;-40
2021/12/02 06:32:56;;;;;;;7.10;6.40;;;;;;;0.40;86.27;99412.84;4936890;29;20478;-42
2021/12/02 06:35:24;;;;;;;7.37;6.67;;;;;;;0.40;86.38;99415.47;4937311;29;20444;-41
2021/12/02 06:37:52;;;;;;;7.50;6.77;;;;;;;0.40;86.99;99423.34;4936928;29;20472;-41
2021/12/02 06:40:20;;;;;;;6.70;6.30;;;;;;;0.37;84.54;99423.66;4928704;28;20561;-41
2021/12/02 06:42:47;;;;;;;6.60;6.27;;;;;;;0.42;86.12;99436.28;4936971;29;20437;-41
2021/12/02 06:45:15;;;;;;;6.50;6.07;;;;;;;0.38;85.62;99435.81;4936631;29;20449;-41
2021/12/02 06:47:45;;;;;;;7.37;6.63;;;;;;;0.39;85.68;99436.59;4937216;29;20865;-41
2021/12/02 06:50:18;;;;;;;8.33;6.10;;;;;;;0.42;85.91;99447.59;4936506;28;20475;-42
2021/12/02 06:52:46;;;;;;;6.73;6.27;;;;;;;0.39;85.18;99447.91;4936674;29;20488;-42
2021/12/02 06:55:15;;;;;;;8.23;6.07;;;;;;;0.39;85.17;99454.97;4936790;29;20444;-44
2021/12/02 06:57:43;;;;;;;6.50;6.10;;;;;;;0.40;85.41;99465.31;4936910;29;20802;-41
2021/12/02 07:00:13;;;;;;;7.90;6.73;;;;;;;0.38;83.74;99466.44;4936440;28;20829;-41
2021/12/02 07:02:42;;;;;;;11.53;6.30;;;;;;;0.42;85.03;99465.94;4936356;29;21018;-42
2021/12/02 07:05:13;;;;;;;6.23;5.80;;;;;;;0.38;85.46;99472.53;4936646;29;20450;-40
2021/12/02 07:07:42;;;;;;;8.20;6.37;;;;;;;0.36;85.05;99484.97;4936457;29;20465;-44
2021/12/02 07:10:13;;;;;;;9.83;6.37;;;;;;;0.38;85.59;99477.78;4936330;28;20469;-41
2021/12/02 07:12:42;;;;;;;6.90;6.40;;;;;;;0.38;85.08;99493.50;4936371;29;20485;-41
2021/12/02 07:15:16;;;;;;;6.43;5.83;;;;;;;0.36;85.61;99499.91;4936535;29;20804;-42
2021/12/02 07:17:45;;;;;;;6.40;6.10;;;;;;;0.35;84.67;99506.13;4936262;29;20453;-42
2021/12/02 07:20:13;;;;;;;7.40;5.77;;;;;;;0.34;84.91;99512.31;4935959;28;20994;-42
2021/12/02 07:22:42;;;;;;;6.47;5.90;;;;;;;0.37;85.10;99520.69;4936095;29;20437;-42
2021/12/02 07:25:10;;;;;;;8.17;6.17;;;;;;;0.36;85.71;99536.59;4936209;29;20449;-44
2021/12/02 07:27:38;;;;;;;8.80;6.40;;;;;;;0.36;85.46;99534.00;4936129;29;20447;-43
2021/12/02 07:30:08;;;;;;;7.97;6.10;;;;;;;0.39;87.39;99531.00;4935786;28;20460;-44
2021/12/02 07:32:39;;;;;;;6.67;6.30;;;;;;;0.39;87.70;99538.88;4935679;29;20488;-44
2021/12/02 07:35:10;;;;;;;7.93;7.23;;;;;;;0.39;86.16;99552.81;4936270;29;20458;-45
2021/12/02 07:37:43;;;;;;;10.97;7.37;;;;;;;0.39;86.62;99547.56;4935891;29;20542;-42
2021/12/02 07:40:12;;;;;;;6.57;6.07;;;;;;;0.40;87.31;99551.84;4927604;29;20463;-43
2021/12/02 07:42:39;;;;;;;6.77;6.37;;;;;;;0.38;87.09;99547.75;4935754;29;20442;-48
2021/12/02 07:45:09;;;;;;;7.50;6.50;;;;;;;0.40;88.13;99557.09;4935802;29;20438;-43
2021/12/02 07:47:39;;;;;;;9.50;6.37;;;;;;;0.36;86.24;99566.25;4935934;29;20464;-42
2021/12/02 07:50:08;;;;;;;6.83;5.43;;;;;;;0.36;86.23;99568.88;4935729;28;20475;-46
2021/12/02 07:52:40;;;;;;;6.77;6.13;;;;;;;0.43;87.83;99579.53;4935555;29;20849;-44
2021/12/02 07:55:11;;;;;;;6.20;5.90;;;;;;;0.40;87.62;99580.69;4934984;29;20448;-44
2021/12/02 07:57:42;;;;;;;6.80;6.40;;;;;;;0.45;88.17;99583.66;4935422;29;20471;-44
2021/12/02 08:00:11;;;;;;;7.20;6.60;;;;;;;0.48;87.62;99583.31;4935452;28;20467;-44
2021/12/02 08:02:42;;;;;;;7.57;6.97;;;;;;;0.49;87.89;99594.66;4935477;29;20437;-42
2021/12/02 08:05:10;;;;;;;7.93;6.90;;;;;;;0.46;87.00;99595.78;4935592;29;20795;-44
2021/12/02 08:07:39;;;;;;;7.50;6.87;;;;;;;0.50;87.60;99598.91;4935439;29;20464;-43
2021/12/02 08:10:10;;;;;;;7.73;7.03;;;;;;;0.48;86.63;99590.38;4934892;28;20469;-45
2021/12/02 08:12:40;;;;;;;8.00;7.03;;;;;;;0.50;86.65;99599.75;4935419;29;20481;-45
2021/12/02 08:15:09;;;;;;;7.13;6.60;;;;;;;0.50;87.60;99620.72;4935435;29;20444;-45
2021/12/02 08:17:36;;;;;;;7.47;7.17;;;;;;;0.52;87.54;99626.63;4935272;29;20456;-43
2021/12/02 08:20:05;;;;;;;7.40;6.90;;;;;;;0.49;86.09;99623.50;4934791;28;20469;-44
2021/12/02 08:22:33;;;;;;;8.13;7.63;;;;;;;0.57;87.28;99635.84;4934882;29;20935;-45
2021/12/02 08:25:02;;;;;;;7.60;6.80;;;;;;;0.53;86.70;99644.03;4935296;29;20438;-42
2021/12/02 08:27:31;;;;;;;10.63;6.73;;;;;;;0.50;86.87;99654.00;4935132;29;20861;-42
2021/12/02 08:30:02;;;;;;;8.37;7.73;;;;;;;0.53;87.08;99653.69;4934629;28;20459;-43
2021/12/02 08:32:30;;;;;;;7.50;7.00;;;;;;;0.51;86.39;99651.22;4934959;29;20483;-44
2021/12/02 08:34:59;;;;;;;7.77;6.50;;;;;;;0.57;87.42;99656.81;4934834;29;20464;-44
2021/12/02 08:37:29;;;;;;;7.07;6.77;;;;;;;0.54;86.60;99664.00;4971782;23;20527;-49
2021/12/02 08:39:59;;;;;;;6.80;6.20;;;;;;;0.55;86.66;99668.28;4972859;28;20822;-42
2021/12/02 08:42:27;;;;;;;6.60;6.07;;;;;;;0.64;86.72;99671.75;4973513;28;20779;-45
2021/12/02 08:44:56;;;;;;;7.93;7.30;;;;;;;0.65;86.20;99683.06;4973275;28;20435;-44
2021/12/02 08:47:25;;;;;;;7.53;6.90;;;;;;;0.67;86.15;99681.09;4973076;28;20996;-45
2021/12/02 08:49:54;;;;;;;6.57;5.97;;;;;;;0.70;85.99;99688.66;4972760;28;20463;-47
2021/12/02 08:52:23;;;;;;;7.17;6.77;;;;;;;0.73;85.67;99686.53;4973064;28;20448;-45
2021/12/02 08:54:51;;;;;;;7.77;7.07;;;;;;;0.77;85.02;99690.50;4973268;28;20434;-45
2021/12/02 08:57:39;;;;;;;7.87;6.10;;;;;;;0.84;85.57;99688.84;4973296;28;20991;-43
2021/12/02 09:00:10;;;;;;;6.60;6.17;;;;;;;0.88;85.28;99697.25;4972497;28;20827;-49
2021/12/02 09:02:38;;;;;;;7.00;6.57;;;;;;;0.89;84.09;99699.72;4973077;28;20515;-46
2021/12/02 09:05:07;;;;;;;6.77;6.37;;;;;;;1.00;84.97;99704.66;4973271;28;20442;-44
2021/12/02 09:07:35;;;;;;;5.87;5.40;;;;;;;1.09;84.09;99708.13;4972741;28;21038;-44
2021/12/02 09:10:04;;;;;;;7.73;6.27;;;;;;;1.06;84.43;99709.28;4972743;28;20467;-45
2021/12/02 09:12:32;;;;;;;6.30;5.97;;;;;;;1.05;84.69;99717.28;4972652;28;20442;-49
2021/12/02 09:15:00;;;;;;;7.00;6.50;;;;;;;1.07;84.73;99712.72;4973268;28;20444;-45
2021/12/02 09:17:29;;;;;;;8.60;6.37;;;;;;;1.07;83.83;99728.47;4973082;28;20819;-50
2021/12/02 09:19:56;;;;;;;6.80;6.33;;;;;;;1.12;83.84;99723.56;4972578;28;20465;-46
2021/12/02 09:22:24;;;;;;;5.90;5.40;;;;;;;1.21;83.74;99740.16;4972909;28;20444;-47
2021/12/02 09:24:52;;;;;;;13.23;7.17;;;;;;;1.28;82.98;99741.97;4972808;28;20444;-47
2021/12/02 09:27:19;;;;;;;7.23;6.57;;;;;;;1.36;83.35;99747.25;4971054;28;20473;-44
2021/12/02 09:29:47;;;;;;;10.20;6.17;;;;;;;1.43;83.11;99757.94;4972516;28;20434;-45
2021/12/02 09:32:15;;;;;;;7.07;6.83;;;;;;;1.47;82.43;99756.59;4972933;28;20438;-45
2021/12/02 09:34:44;;;;;;;7.00;6.60;;;;;;;1.46;81.40;99768.13;4972573;28;20481;-46
2021/12/02 09:37:12;;;;;;;6.90;6.20;;;;;;;1.45;81.24;99777.78;4972549;28;20468;-42
2021/12/02 09:39:39;;;;;;;6.50;6.00;;;;;;;1.41;80.74;99775.63;4971823;28;20438;-45
2021/12/02 09:42:10;;;;;;;6.43;5.93;;;;;;;1.45;81.65;99772.53;4972600;28;20435;-45
2021/12/02 09:44:55;;;;;;;6.30;5.87;;;;;;;1.50;82.24;99783.38;4972679;28;20524;-45
2021/12/02 09:47:23;;;;;;;5.60;5.30;;;;;;;1.51;81.18;99786.84;4972716;28;20462;-47
2021/12/02 09:49:52;;;;;;;6.57;5.80;;;;;;;1.49;80.90;99783.56;4972187;28;20436;-44
2021/12/02 09:52:29;;;;;;;6.53;6.10;;;;;;;1.54;81.13;99781.25;4972580;28;20442;-45
2021/12/02 09:55:00;;;;;;;7.07;6.27;;;;;;;1.55;80.73;99788.16;4972769;28;20479;-45
2021/12/02 09:57:33;;;;;;;6.67;6.03;;;;;;;1.56;80.47;99797.66;4972636;28;20926;-44
2021/12/02 10:00:01;;;;;;;7.13;6.60;;;;;;;1.58;80.35;99791.25;4972188;28;20468;-44
2021/12/02 10:02:30;;;;;;;5.87;5.40;;;;;;;1.61;81.65;99796.19;4972295;28;20430;-44
2021/12/02 10:05:05;;;;;;;7.23;6.10;;;;;;;1.66;80.93;99796.56;4972744;28;20444;-44
2021/12/02 10:07:35;;;;;;;5.93;5.70;;;;;;;1.65;81.62;99801.94;4972611;28;20448;-41
2021/12/02 10:10:10;;;;;;;6.43;5.53;;;;;;;1.70;81.59;99810.19;4972036;28;20463;-45
2021/12/02 10:12:49;;;;;;;5.70;5.30;;;;;;;1.70;80.25;99806.75;4972255;28;20451;-45
2021/12/02 10:15:18;;;;;;;5.70;5.20;;;;;;;1.63;80.51;99812.63;4972726;28;20523;-42
2021/12/02 10:17:47;;;;;;;5.90;5.27;;;;;;;1.68;80.85;99809.50;4972665;28;20456;-47
2021/12/02 10:20:25;;;;;;;5.90;5.50;;;;;;;1.60;80.51;99823.47;4975285;28;20469;-50
2021/12/02 10:23:13;;;;;;;5.73;5.27;;;;;;;1.57;80.85;99817.72;4975938;28;20498;-43
2021/12/02 10:25:46;;;;;;;5.30;4.80;;;;;;;1.64;79.67;99819.53;4975726;28;20935;-47
2021/12/02 10:28:15;;;;;;;7.30;4.70;;;;;;;1.69;80.33;99821.69;4975644;28;20989;-48
2021/12/02 10:30:45;;;;;;;5.47;4.80;;;;;;;1.73;81.00;99832.69;4975467;28;20471;-42
2021/12/02 10:33:14;;;;;;;6.20;5.70;;;;;;;1.72;80.50;99829.25;4975528;28;20437;-51
2021/12/02 10:35:46;;;;;;;5.67;5.37;;;;;;;1.70;81.48;99839.09;4975589;28;20833;-45
2021/12/02 10:38:32;;;;;;;8.27;6.90;;;;;;;1.62;80.18;99842.53;4975400;28;20548;-46
2021/12/02 10:41:02;;;;;;;8.43;5.90;;;;;;;1.70;80.70;99847.00;4975181;28;20834;-48
2021/12/02 10:43:30;;;;;;;8.60;5.73;;;;;;;1.74;80.37;99844.84;4975408;28;20431;-49
2021/12/02 10:46:14;;;;;;;6.33;5.73;;;;;;;1.75;79.96;99843.88;4976096;28;20448;-46
2021/12/02 10:48:47;;;;;;;5.10;4.80;;;;;;;1.82;80.72;99844.88;4975342;28;20972;-43
2021/12/02 10:51:43;;;;;;;5.33;5.03;;;;;;;1.85;80.88;99853.22;4974953;28;20842;-43
2021/12/02 10:54:15;;;;;;;7.70;7.00;;;;;;;1.93;80.34;99855.88;4968251;28;20480;-45
2021/12/02 10:56:46;;;;;;;6.93;6.23;;;;;;;1.84;79.85;99858.66;4975181;28;20440;-45
2021/12/02 10:59:34;;;;;;;5.23;4.93;;;;;;;1.91;80.48;99873.59;4975392;28;20520;-45
2021/12/02 11:02:05;;;;;;;8.03;4.80;;;;;;;1.91;80.51;99870.19;4975120;28;20442;-46
2021/12/02 11:04:40;;;;;;;5.47;4.97;;;;;;;1.92;81.04;99877.91;4974936;28;20507;-45
2021/12/02 11:07:13;;;;;;;7.93;5.43;;;;;;;1.87;80.31;99882.00;4974874;28;20483;-42
2021/12/02 11:09:41;;;;;;;5.87;5.33;;;;;;;1.88;80.66;99873.13;4974776;28;20433;-45
2021/12/02 11:12:16;;;;;;;6.00;5.40;;;;;;;1.96;82.27;99881.84;4975155;28;20568;-45
2021/12/02 11:14:53;;;;;;;6.60;5.87;;;;;;;1.95;81.45;99882.00;4974775;28;20482;-48
2021/12/02 11:17:22;;;;;;;7.90;5.93;;;;;;;1.97;82.43;99893.19;4974781;28;20458;-45
2021/12/02 11:19:51;;;;;;;6.03;5.63;;;;;;;2.02;83.31;99890.91;4974280;28;20437;-45
2021/12/02 11:22:23;;;;;;;7.73;5.50;;;;;;;2.07;82.40;99881.53;4974899;28;20437;-45
2021/12/02 11:24:52;;;;;;;10.47;6.00;;;;;;;2.06;82.26;99889.59;4974775;28;20435;-44
2021/12/02 11:27:22;;;;;;;5.60;5.20;;;;;;;2.04;81.31;99887.13;4974650;28;20459;-50
2021/12/02 11:29:56;;;;;;;8.80;6.10;;;;;;;2.09;82.13;99897.16;4974105;28;20437;-45
2021/12/02 11:32:44;;;;;;;6.17;5.77;;;;;;;2.18;83.50;99890.94;4974741;28;20439;-46
2021/12/02 11:35:22;;;;;;;6.57;5.70;;;;;;;2.10;81.83;99889.09;4972564;28;20850;-44
2021/12/02 11:37:55;;;;;;;11.53;5.90;;;;;;;2.06;81.69;99898.28;4974303;28;20873;-45
2021/12/02 11:40:28;;;;;;;6.87;6.33;;;;;;;2.18;82.10;99904.09;4965752;28;20568;-42
2021/12/02 11:42:57;;;;;;;8.73;5.50;;;;;;;2.18;81.99;99911.97;4974388;28;20444;-47
2021/12/02 11:45:27;;;;;;;7.23;5.10;;;;;;;2.22;81.79;99910.63;4974296;28;20438;-46
2021/12/02 11:47:55;;;;;;;5.30;4.80;;;;;;;2.21;82.30;99911.66;4974409;28;20453;-47
2021/12/02 11:50:25;;;;;;;5.87;5.33;;;;;;;2.27;82.39;99921.47;4973807;28;20469;-46
2021/12/02 11:52:55;;;;;;;5.63;4.77;;;;;;;2.28;82.01;99924.94;4973857;28;20444;-43
2021/12/02 11:55:25;;;;;;;9.03;5.50;;;;;;;2.23;81.74;99921.00;4974261;28;20503;-43
2021/12/02 11:57:53;;;;;;;5.30;4.87;;;;;;;2.12;80.42;99929.19;4974367;28;20468;-44
2021/12/02 12:00:23;;;;;;;7.33;5.30;;;;;;;2.22;81.89;99934.31;4973757;28;20820;-48
2021/12/02 12:02:56;;;;;;;6.17;4.87;;;;;;;2.28;81.29;99922.31;4973900;28;20438;-43